Time;durP1;ratioP1;P1;durP2;ratioP2;P2;SDS_P1;SDS_P2;PMS_P1;PMS_P2;Temp;Humidity;BMP_temperature;BMP_pressure;BME280_temperature;BME280_humidity;BME280_pressure;Samples;Min_cycle;Max_cycle;Signal;HPM_P1;HPM_P2
2022/12/17 13:07:27;;;;;;;33.13;22.30;;;0.40;82.70;;;;;;5015171;28;20187;-92
2022/12/17 13:09:56;;;;;;;38.27;23.40;;;0.30;82.10;;;;;;5014659;28;20200;-90
2022/12/17 13:12:42;;;;;;;23.33;18.10;;;0.10;81.80;;;;;;5013007;28;20193;-91
2022/12/17 13:15:15;;;;;;;36.70;21.90;;;0.00;82.40;;;;;;5015217;28;20183;-90
2022/12/17 13:17:55;;;;;;;35.23;22.40;;;0.10;82.50;;;;;;5013834;28;20199;-91
2022/12/17 13:20:23;;;;;;;33.43;20.70;;;0.10;82.30;;;;;;5029196;28;20213;-93
2022/12/17 13:22:52;;;;;;;33.03;21.57;;;0.00;82.10;;;;;;5031231;28;20247;-94
2022/12/17 13:25:21;;;;;;;34.17;19.90;;;-0.10;83.00;;;;;;5026690;28;20193;-93
2022/12/17 13:27:48;;;;;;;38.67;22.10;;;-0.30;82.70;;;;;;5026421;28;20726;-93
2022/12/17 13:30:16;;;;;;;37.23;22.27;;;-0.40;83.60;;;;;;5026567;28;20217;-93
2022/12/17 13:33:03;;;;;;;37.20;22.07;;;-0.40;83.70;;;;;;5023168;28;20178;-92
2022/12/17 13:35:47;;;;;;;37.17;22.67;;;-0.50;83.90;;;;;;5018423;28;20291;-92
2022/12/17 13:38:55;;;;;;;37.67;23.00;;;-0.60;84.20;;;;;;5014939;28;20173;-92
2022/12/17 13:41:28;;;;;;;35.70;22.17;;;-0.50;84.40;;;;;;5013493;28;20217;-92
2022/12/17 13:44:03;;;;;;;32.37;22.47;;;-0.50;84.40;;;;;;5014641;28;20170;-92
2022/12/17 13:46:49;;;;;;;46.40;25.83;;;-0.60;84.20;;;;;;5015311;28;20721;-92
2022/12/17 13:49:19;;;;;;;38.83;21.20;;;-0.70;84.20;;;;;;5014073;28;20182;-89
2022/12/17 13:51:45;;;;;;;32.03;21.23;;;-0.80;84.30;;;;;;5016809;28;20245;-92
2022/12/17 13:54:17;;;;;;;38.60;21.27;;;-0.80;84.40;;;;;;5015572;28;20177;-92
2022/12/17 13:56:43;;;;;;;38.90;22.17;;;-1.00;84.20;;;;;;5016207;28;20185;-92
2022/12/17 13:59:21;;;;;;;32.37;20.03;;;-1.10;84.10;;;;;;5017389;28;20192;-92
2022/12/17 14:01:52;;;;;;;37.83;22.67;;;-1.10;84.00;;;;;;5022034;28;20253;-92
2022/12/17 14:04:24;;;;;;;33.30;18.97;;;-1.10;84.10;;;;;;5024256;28;20263;-92
2022/12/17 14:06:51;;;;;;;38.27;20.90;;;-1.20;84.00;;;;;;5022280;28;20185;-92
2022/12/17 14:09:19;;;;;;;36.00;21.97;;;-1.30;84.00;;;;;;5019318;28;20245;-92
2022/12/17 14:14:41;;;;;;;41.50;24.47;;;-1.30;84.60;;;;;;5019324;28;20176;-92
2022/12/17 14:17:34;;;;;;;36.90;22.50;;;-1.30;84.60;;;;;;5017917;28;20650;-92
2022/12/17 14:20:03;;;;;;;38.43;22.97;;;-1.40;84.50;;;;;;5018474;28;20296;-92
2022/12/17 14:22:39;;;;;;;38.60;23.67;;;-1.60;84.40;;;;;;5016716;28;20264;-92
2022/12/17 14:25:12;;;;;;;36.33;23.23;;;-1.60;84.60;;;;;;5021759;28;20207;-92
2022/12/17 14:27:40;;;;;;;26.37;15.93;;;-1.60;84.40;;;;;;5025893;28;20173;-92
2022/12/17 14:30:40;;;;;;;34.20;21.23;;;-1.80;84.30;;;;;;5023738;28;20230;-92
2022/12/17 14:33:26;;;;;;;32.63;19.10;;;-1.90;84.60;;;;;;5023594;28;20202;-92
2022/12/17 14:35:56;;;;;;;40.17;21.83;;;-1.90;84.40;;;;;;5024326;28;20175;-92
2022/12/17 14:38:22;;;;;;;39.10;24.00;;;-2.00;84.50;;;;;;5026260;28;20269;-91
2022/12/17 14:40:48;;;;;;;44.57;25.70;;;-2.10;84.80;;;;;;5023610;28;20201;-92
2022/12/17 14:43:14;;;;;;;44.53;25.67;;;-2.10;85.00;;;;;;5020536;28;20210;-92
2022/12/17 14:51:27;;;;;;;39.93;24.07;;;-2.30;85.40;;;;;;5019062;28;20253;-92
2022/12/17 14:54:03;;;;;;;41.17;24.00;;;-2.40;85.70;;;;;;5017748;28;20683;-92
2022/12/17 14:56:28;;;;;;;43.90;25.97;;;-2.50;85.90;;;;;;5019136;28;20225;-92
2022/12/17 14:58:54;;;;;;;42.27;25.00;;;-2.60;86.20;;;;;;5016603;28;20190;-92
2022/12/17 15:01:20;;;;;;;43.67;26.13;;;-2.70;86.40;;;;;;5016706;28;20348;-92
2022/12/17 15:03:46;;;;;;;45.80;25.83;;;-2.80;86.50;;;;;;5018078;28;20184;-92
2022/12/17 15:06:17;;;;;;;42.07;24.37;;;-2.70;86.60;;;;;;5017577;28;20172;-92
2022/12/17 15:08:46;;;;;;;37.07;24.60;;;-2.80;86.40;;;;;;5017463;28;20167;-92
2022/12/17 15:11:15;;;;;;;46.27;25.47;;;-2.90;86.30;;;;;;5017284;28;20197;-92
2022/12/17 15:13:41;;;;;;;40.60;23.20;;;-2.90;86.80;;;;;;5016866;28;20610;-91
2022/12/17 15:16:07;;;;;;;38.17;23.43;;;-3.00;87.10;;;;;;5015680;28;20179;-92
2022/12/17 15:18:32;;;;;;;35.20;22.03;;;-3.10;87.60;;;;;;5015799;28;20174;-91
2022/12/17 15:20:58;;;;;;;31.37;21.33;;;-3.10;87.80;;;;;;5016448;28;20201;-91
2022/12/17 15:23:24;;;;;;;34.73;23.13;;;-3.20;88.00;;;;;;5015131;28;20278;-91
2022/12/17 15:25:52;;;;;;;36.37;23.93;;;-3.30;88.20;;;;;;5016196;28;20197;-91
2022/12/17 15:28:19;;;;;;;39.97;25.77;;;-3.40;88.40;;;;;;5016308;28;20179;-90
2022/12/17 15:30:46;;;;;;;41.80;26.03;;;-3.30;88.60;;;;;;5014896;28;20233;-90
2022/12/17 15:33:12;;;;;;;40.40;25.23;;;-3.30;88.40;;;;;;5016816;28;20663;-92
2022/12/17 15:35:39;;;;;;;41.77;25.30;;;-3.30;88.30;;;;;;5015184;28;20553;-91
2022/12/17 15:38:05;;;;;;;40.40;26.37;;;-3.40;88.10;;;;;;5015991;28;20188;-91
2022/12/17 15:40:31;;;;;;;40.70;26.37;;;-3.40;88.00;;;;;;5015869;28;20238;-90
2022/12/17 15:43:10;;;;;;;37.43;25.07;;;-3.40;87.80;;;;;;5016657;28;20175;-92
2022/12/17 15:45:48;;;;;;;41.43;25.87;;;-3.50;87.70;;;;;;5017134;28;20249;-92
2022/12/17 15:48:18;;;;;;;41.03;24.53;;;-3.60;87.80;;;;;;5015298;28;20172;-91
2022/12/17 15:50:45;;;;;;;42.17;25.47;;;-3.90;88.00;;;;;;5016731;28;20308;-91
2022/12/17 15:53:10;;;;;;;44.53;23.90;;;-4.00;88.40;;;;;;5015149;28;20637;-91
2022/12/17 15:55:37;;;;;;;46.67;25.77;;;-4.10;88.60;;;;;;5015193;28;20185;-91
2022/12/17 15:58:04;;;;;;;37.13;22.47;;;-4.00;88.90;;;;;;5016865;28;20212;-91
2022/12/17 16:00:29;;;;;;;39.60;22.77;;;-4.00;89.30;;;;;;5019331;28;20201;-92
2022/12/17 16:02:55;;;;;;;43.90;26.47;;;-3.80;89.50;;;;;;5017071;28;20205;-91
2022/12/17 16:05:21;;;;;;;39.57;22.23;;;-3.90;89.40;;;;;;5015655;28;20185;-91
2022/12/17 16:07:47;;;;;;;47.30;28.87;;;-4.00;89.50;;;;;;5016255;28;20188;-91
2022/12/17 16:10:13;;;;;;;41.43;24.53;;;-4.00;89.60;;;;;;5017517;28;20204;-91
2022/12/17 16:12:39;;;;;;;32.00;18.63;;;-4.10;89.70;;;;;;5016392;28;20207;-91
2022/12/17 16:15:06;;;;;;;32.37;18.60;;;-4.10;89.90;;;;;;5015482;28;20177;-91
2022/12/17 16:17:33;;;;;;;50.67;28.83;;;-4.00;90.10;;;;;;5017716;28;20528;-92
2022/12/17 16:19:59;;;;;;;51.00;26.93;;;-4.00;90.00;;;;;;5015892;28;20220;-91
2022/12/17 16:22:25;;;;;;;42.47;24.87;;;-4.10;89.90;;;;;;5016342;28;20615;-91
2022/12/17 16:24:51;;;;;;;51.80;27.60;;;-4.20;89.90;;;;;;5016238;28;20180;-92
2022/12/17 16:27:17;;;;;;;51.43;28.80;;;-4.20;89.90;;;;;;5017704;28;20166;-91
2022/12/17 16:29:44;;;;;;;54.70;30.37;;;-4.40;89.80;;;;;;5015706;28;20189;-91
2022/12/17 16:32:10;;;;;;;48.93;26.40;;;-4.50;90.00;;;;;;5015664;28;20169;-91
2022/12/17 16:34:35;;;;;;;60.43;29.53;;;-4.50;90.20;;;;;;5015842;28;20178;-91
2022/12/17 16:37:01;;;;;;;58.97;31.23;;;-4.60;90.20;;;;;;5017271;28;20170;-91
2022/12/17 16:39:26;;;;;;;59.77;33.47;;;-4.60;90.30;;;;;;5016008;28;20201;-91
2022/12/17 16:41:52;;;;;;;67.27;35.40;;;-4.60;90.40;;;;;;5014813;28;20219;-91
2022/12/17 16:44:18;;;;;;;57.00;30.47;;;-4.60;90.40;;;;;;5015622;28;20177;-91
2022/12/17 16:46:45;;;;;;;63.17;33.17;;;-4.70;90.50;;;;;;5015863;28;20679;-91
2022/12/17 16:49:19;;;;;;;67.10;34.17;;;-4.80;90.60;;;;;;5014583;28;20192;-92
2022/12/17 16:51:47;;;;;;;60.07;32.07;;;-4.90;90.70;;;;;;5014864;28;20185;-91
2022/12/17 16:54:16;;;;;;;70.03;35.30;;;-4.90;90.90;;;;;;5014348;28;20196;-91
2022/12/17 16:56:43;;;;;;;73.43;35.53;;;-5.00;91.00;;;;;;5013745;28;20185;-91
2022/12/17 16:59:10;;;;;;;67.53;34.87;;;-5.10;91.00;;;;;;5014898;28;20181;-91
2022/12/17 17:01:37;;;;;;;67.37;34.13;;;-5.00;91.20;;;;;;5013692;28;20675;-91
2022/12/17 17:04:07;;;;;;;58.27;28.90;;;-5.00;91.30;;;;;;5014372;28;20184;-90
2022/12/17 17:06:40;;;;;;;65.90;34.00;;;-5.00;91.50;;;;;;5014233;28;20161;-89
2022/12/17 17:09:06;;;;;;;63.60;33.03;;;-5.00;91.50;;;;;;5012904;28;20192;-88
2022/12/17 17:11:32;;;;;;;58.90;31.10;;;-5.00;91.60;;;;;;5012974;28;20639;-89
2022/12/17 17:13:58;;;;;;;62.13;33.43;;;-5.00;91.60;;;;;;5013127;28;20177;-90
2022/12/17 17:16:24;;;;;;;74.17;38.40;;;-5.00;91.70;;;;;;5014125;28;20184;-89
2022/12/17 17:18:51;;;;;;;62.73;36.33;;;-4.90;91.70;;;;;;5013063;28;20191;-89
2022/12/17 17:21:20;;;;;;;64.83;37.17;;;-5.00;91.60;;;;;;5012674;28;20212;-89
2022/12/17 17:23:47;;;;;;;66.20;35.77;;;-4.90;91.70;;;;;;5013023;28;20264;-89
2022/12/17 17:26:14;;;;;;;68.97;36.87;;;-5.00;91.60;;;;;;5012505;28;20185;-88
2022/12/17 17:28:39;;;;;;;59.23;34.27;;;-5.10;91.60;;;;;;5013328;28;20181;-89
2022/12/17 17:31:09;;;;;;;66.43;36.87;;;-5.00;91.60;;;;;;5012436;28;20228;-89
2022/12/17 17:33:37;;;;;;;53.40;27.43;;;-5.10;91.70;;;;;;5012434;28;20189;-89
2022/12/17 17:36:14;;;;;;;52.57;27.93;;;-4.90;91.90;;;;;;5012494;28;20189;-90
2022/12/17 17:38:40;;;;;;;47.23;29.53;;;-4.90;91.70;;;;;;5012591;28;20255;-89
2022/12/17 17:41:09;;;;;;;64.83;32.67;;;-4.90;91.80;;;;;;5012367;28;20647;-89
2022/12/17 17:43:35;;;;;;;57.87;32.83;;;-5.00;91.80;;;;;;5012393;28;20181;-89
2022/12/17 17:46:09;;;;;;;64.80;34.97;;;-5.00;91.70;;;;;;5012319;28;20173;-90
2022/12/17 17:48:35;;;;;;;72.77;39.03;;;-5.00;91.70;;;;;;5012430;28;20192;-90
2022/12/17 17:51:22;;;;;;;74.97;37.63;;;-5.10;91.60;;;;;;5012381;28;20201;-90
2022/12/17 17:53:51;;;;;;;56.10;29.63;;;-5.10;91.70;;;;;;5012101;28;20272;-89
2022/12/17 17:56:19;;;;;;;63.40;32.70;;;-5.00;91.60;;;;;;5012441;28;20189;-91
2022/12/17 17:58:50;;;;;;;75.50;38.97;;;-5.10;91.60;;;;;;5012348;28;20173;-91
2022/12/17 18:01:22;;;;;;;56.67;28.97;;;-5.10;91.60;;;;;;5012309;28;20669;-91
2022/12/17 18:03:48;;;;;;;64.40;31.50;;;-5.10;91.60;;;;;;5013182;28;20248;-91
2022/12/17 18:06:13;;;;;;;64.77;34.93;;;-5.20;91.60;;;;;;5012199;28;20288;-92
2022/12/17 18:08:40;;;;;;;53.13;27.17;;;-5.10;91.60;;;;;;5012243;28;20663;-91
2022/12/17 18:11:11;;;;;;;71.07;38.00;;;-5.10;91.60;;;;;;5012223;28;20201;-91
2022/12/17 18:13:56;;;;;;;73.77;38.37;;;-5.10;91.60;;;;;;5012376;28;20184;-91
2022/12/17 18:16:42;;;;;;;78.17;42.67;;;-5.00;91.60;;;;;;5012237;28;20170;-91
2022/12/17 18:19:15;;;;;;;75.40;38.70;;;-5.00;91.50;;;;;;5012098;28;20228;-91
2022/12/17 18:21:41;;;;;;;62.07;31.73;;;-5.00;91.40;;;;;;5011906;28;20250;-90
2022/12/17 18:24:13;;;;;;;66.83;38.93;;;-5.10;91.30;;;;;;5012108;28;20675;-91
2022/12/17 18:26:41;;;;;;;38.53;21.70;;;-5.10;91.20;;;;;;5012235;28;20168;-89
2022/12/17 18:29:19;;;;;;;62.30;32.93;;;-5.10;91.20;;;;;;5011910;28;20585;-88
2022/12/17 18:31:44;;;;;;;74.30;39.70;;;-5.10;91.20;;;;;;5012282;28;20547;-88
2022/12/17 18:34:13;;;;;;;69.60;36.47;;;-5.10;91.20;;;;;;5013070;28;20203;-89
2022/12/17 18:36:40;;;;;;;69.83;39.03;;;-5.10;91.10;;;;;;5011878;28;20189;-89
2022/12/17 18:39:18;;;;;;;71.33;39.10;;;-5.20;91.00;;;;;;5011725;28;20178;-89
2022/12/17 18:44:31;;;;;;;80.20;47.08;;;-5.30;90.80;;;;;;5012840;28;20416;-89
2022/12/17 18:46:57;;;;;;;71.20;40.87;;;-5.20;90.80;;;;;;5011704;28;20169;-88
2022/12/17 18:49:25;;;;;;;68.07;38.20;;;-5.30;90.60;;;;;;5012371;28;20200;-89
2022/12/17 18:51:51;;;;;;;66.83;38.17;;;-5.40;90.50;;;;;;5011761;28;20654;-88
2022/12/17 18:54:20;;;;;;;68.13;38.60;;;-5.40;90.50;;;;;;5011785;28;20229;-88
2022/12/17 18:56:46;;;;;;;63.53;38.80;;;-5.40;90.40;;;;;;5012073;28;20177;-89
2022/12/17 18:59:14;;;;;;;54.33;30.70;;;-5.30;90.30;;;;;;5011438;28;20556;-88
2022/12/17 19:01:40;;;;;;;67.57;37.60;;;-5.40;90.20;;;;;;5011578;28;20207;-88
2022/12/17 19:04:08;;;;;;;61.80;36.27;;;-5.30;90.30;;;;;;5012014;28;20593;-88
2022/12/17 19:06:35;;;;;;;64.47;35.33;;;-5.30;90.30;;;;;;5012419;28;20174;-88
2022/12/17 19:09:02;;;;;;;53.93;32.40;;;-5.50;90.10;;;;;;5012533;28;20518;-89
2022/12/17 19:11:34;;;;;;;56.57;33.27;;;-5.80;90.00;;;;;;5015293;28;20650;-89
2022/12/17 19:14:01;;;;;;;68.57;35.63;;;-5.90;90.00;;;;;;5015089;28;20170;-89
2022/12/17 19:16:28;;;;;;;60.73;33.60;;;-6.00;90.10;;;;;;5015136;28;20227;-89
2022/12/17 19:18:56;;;;;;;63.43;35.20;;;-6.00;90.20;;;;;;5014874;28;20207;-90
2022/12/17 19:21:22;;;;;;;64.73;36.70;;;-5.90;90.30;;;;;;5015017;28;20691;-88
2022/12/17 19:23:49;;;;;;;62.77;36.67;;;-5.80;90.40;;;;;;5014730;28;20177;-90
2022/12/17 19:26:18;;;;;;;65.50;36.23;;;-5.70;90.40;;;;;;5014792;28;20546;-89
2022/12/17 19:28:47;;;;;;;57.73;35.80;;;-5.60;90.50;;;;;;5014720;28;20173;-89
2022/12/17 19:31:13;;;;;;;67.93;36.47;;;-5.50;90.50;;;;;;5014530;28;20239;-89
2022/12/17 19:33:39;;;;;;;59.57;34.87;;;-5.50;90.40;;;;;;5015487;28;20201;-90
2022/12/17 19:36:07;;;;;;;62.17;34.50;;;-5.60;90.30;;;;;;5014521;28;20178;-89
2022/12/17 19:38:34;;;;;;;63.00;35.40;;;-5.60;90.20;;;;;;5015246;28;20178;-90
2022/12/17 19:41:11;;;;;;;51.73;32.07;;;-5.60;90.20;;;;;;5014628;28;20205;-89
2022/12/17 19:43:37;;;;;;;51.30;31.97;;;-5.60;90.10;;;;;;5014532;28;20539;-89
2022/12/17 19:46:12;;;;;;;52.73;32.97;;;-5.50;90.00;;;;;;5014329;28;20181;-89
2022/12/17 19:48:40;;;;;;;50.90;30.60;;;-5.60;89.80;;;;;;5016013;28;20203;-89
2022/12/17 19:51:07;;;;;;;54.37;31.37;;;-5.60;89.80;;;;;;5014348;28;20198;-89
2022/12/17 19:53:34;;;;;;;54.30;33.37;;;-5.70;89.70;;;;;;5014229;28;20181;-89
2022/12/17 19:56:16;;;;;;;48.50;31.87;;;-5.70;89.70;;;;;;5014467;28;20181;-89
2022/12/17 19:58:43;;;;;;;51.53;31.93;;;-5.70;89.70;;;;;;5015356;28;20597;-89
2022/12/17 20:01:15;;;;;;;58.93;32.13;;;-5.60;89.80;;;;;;5014312;28;20217;-89
2022/12/17 20:03:42;;;;;;;59.73;33.20;;;-5.50;90.00;;;;;;5014243;28;20644;-89
2022/12/17 20:06:09;;;;;;;55.83;32.57;;;-5.40;90.00;;;;;;5014068;28;20181;-89
2022/12/17 20:08:34;;;;;;;54.53;31.60;;;-5.40;89.90;;;;;;5014718;28;20173;-89
2022/12/17 20:11:02;;;;;;;50.53;31.67;;;-5.50;89.90;;;;;;5014249;28;20216;-89
2022/12/17 20:13:28;;;;;;;49.27;30.60;;;-5.50;89.90;;;;;;5013916;28;20185;-89
2022/12/17 20:16:02;;;;;;;53.03;30.33;;;-5.50;89.80;;;;;;5013793;28;20192;-89
2022/12/17 20:18:28;;;;;;;53.07;32.53;;;-5.50;89.90;;;;;;5013791;28;20189;-89
2022/12/17 20:21:04;;;;;;;60.43;31.37;;;-5.50;89.90;;;;;;5013482;28;20209;-89
2022/12/17 20:23:29;;;;;;;51.43;30.67;;;-5.60;89.80;;;;;;5013737;28;20672;-89
2022/12/17 20:26:07;;;;;;;56.47;32.17;;;-5.60;89.70;;;;;;5013656;28;20268;-89
2022/12/17 20:28:33;;;;;;;45.07;29.97;;;-5.60;89.70;;;;;;5015211;28;20180;-89
2022/12/17 20:31:00;;;;;;;49.93;28.43;;;-5.70;89.60;;;;;;5013497;28;20223;-89
2022/12/17 20:33:26;;;;;;;48.33;31.00;;;-5.70;89.60;;;;;;5014026;28;20192;-89
2022/12/17 20:35:52;;;;;;;50.97;29.80;;;-5.70;89.70;;;;;;5013796;28;20182;-89
2022/12/17 20:38:18;;;;;;;50.43;31.33;;;-5.70;89.60;;;;;;5014702;28;20183;-89
2022/12/17 20:40:44;;;;;;;52.33;29.13;;;-5.70;89.80;;;;;;5013347;28;20582;-89
2022/12/17 20:43:09;;;;;;;50.00;29.07;;;-5.90;89.50;;;;;;5014798;28;20256;-89
2022/12/17 20:45:35;;;;;;;55.50;31.07;;;-6.10;89.50;;;;;;5013602;28;20232;-89
2022/12/17 20:48:00;;;;;;;46.60;29.07;;;-6.10;89.60;;;;;;5014590;28;20177;-88
2022/12/17 20:50:26;;;;;;;51.13;30.30;;;-6.00;89.70;;;;;;5013061;28;20246;-89
2022/12/17 20:52:52;;;;;;;46.33;29.13;;;-5.90;89.90;;;;;;5014366;28;20177;-89
2022/12/17 20:55:18;;;;;;;53.37;31.57;;;-5.80;89.80;;;;;;5013057;28;20185;-89
2022/12/17 20:57:43;;;;;;;45.77;29.77;;;-5.80;89.80;;;;;;5013569;28;20239;-89
2022/12/17 21:00:10;;;;;;;45.27;28.27;;;-5.70;89.90;;;;;;5013355;28;20248;-89
2022/12/17 21:02:36;;;;;;;45.53;30.07;;;-5.60;90.10;;;;;;5013269;28;20177;-89
2022/12/17 21:05:03;;;;;;;49.73;29.73;;;-5.50;90.10;;;;;;5012973;28;20185;-89
2022/12/17 21:07:28;;;;;;;45.80;30.10;;;-5.60;89.90;;;;;;5013691;28;20281;-92
2022/12/17 21:09:54;;;;;;;48.87;30.27;;;-5.70;89.90;;;;;;5012802;28;20407;-90
2022/12/17 21:12:20;;;;;;;51.17;30.40;;;-5.70;89.90;;;;;;5014033;28;20671;-90
2022/12/17 21:14:45;;;;;;;49.13;31.93;;;-5.70;89.90;;;;;;5012784;28;20655;-90
2022/12/17 21:17:14;;;;;;;48.37;32.20;;;-5.70;89.90;;;;;;5013927;28;20172;-90
2022/12/17 21:19:39;;;;;;;50.77;31.50;;;-5.70;89.90;;;;;;5013191;28;20205;-90
2022/12/17 21:22:05;;;;;;;47.27;31.07;;;-5.60;89.90;;;;;;5013939;28;20212;-91
2022/12/17 21:24:31;;;;;;;45.30;28.63;;;-5.60;90.00;;;;;;5013881;28;20184;-89
2022/12/17 21:26:57;;;;;;;53.17;29.47;;;-5.50;90.00;;;;;;5013854;28;20236;-88
2022/12/17 21:29:22;;;;;;;52.67;30.77;;;-5.50;90.00;;;;;;5012412;28;20197;-89
2022/12/17 21:31:50;;;;;;;42.17;30.13;;;-5.50;90.10;;;;;;5012343;28;20194;-89
2022/12/17 21:34:20;;;;;;;47.27;29.40;;;-5.50;90.10;;;;;;5013734;28;20176;-89
2022/12/17 21:36:46;;;;;;;45.87;29.17;;;-5.50;90.10;;;;;;5013621;28;20188;-90
2022/12/17 21:39:14;;;;;;;48.03;30.77;;;-5.50;90.10;;;;;;5012585;28;20200;-89
2022/12/17 21:41:41;;;;;;;43.50;27.93;;;-5.60;90.00;;;;;;5012222;28;20197;-89
2022/12/17 21:44:09;;;;;;;38.83;25.43;;;-5.80;89.80;;;;;;5013833;28;20222;-88
2022/12/17 21:46:34;;;;;;;52.80;38.38;;;-5.90;89.80;;;;;;5011971;28;20446;-87
2022/12/17 21:49:02;;;;;;;46.90;32.03;;;-6.00;89.80;;;;;;5012188;28;20230;-90
2022/12/17 21:51:29;;;;;;;45.67;29.07;;;-6.00;90.00;;;;;;5013335;28;20686;-90
2022/12/17 21:54:00;;;;;;;46.63;27.90;;;-6.10;90.00;;;;;;5012308;28;20189;-90
2022/12/17 21:56:26;;;;;;;48.60;28.50;;;-6.10;90.10;;;;;;5012285;28;20203;-90
2022/12/17 21:58:59;;;;;;;44.63;27.80;;;-6.00;90.40;;;;;;5012123;28;20635;-90
2022/12/17 22:01:30;;;;;;;48.37;30.30;;;-5.80;90.60;;;;;;5012110;28;20299;-89
2022/12/17 22:03:57;;;;;;;43.60;28.63;;;-5.70;90.60;;;;;;5013480;28;20620;-91
2022/12/17 22:06:24;;;;;;;49.90;28.37;;;-5.90;90.40;;;;;;5012198;28;20178;-89
2022/12/17 22:08:50;;;;;;;44.53;28.77;;;-6.00;90.20;;;;;;5013606;28;20207;-89
2022/12/17 22:11:22;;;;;;;43.13;27.83;;;-6.10;90.20;;;;;;5012030;28;20201;-89
2022/12/17 22:16:49;;;;;;;38.37;27.70;;;-5.90;90.20;;;;;;4953197;29;20193;-90
2022/12/17 22:19:21;;;;;;;52.33;27.83;;;-5.90;90.20;;;;;;4999909;28;20193;-89
2022/12/17 22:21:47;;;;;;;46.33;27.83;;;-5.80;90.20;;;;;;5013160;28;20197;-89
2022/12/17 22:24:14;;;;;;;39.83;27.07;;;-5.90;90.10;;;;;;5011998;28;20177;-88
2022/12/17 22:26:40;;;;;;;42.40;28.13;;;-5.90;90.10;;;;;;5011867;28;20182;-89
2022/12/17 22:29:06;;;;;;;43.97;28.77;;;-5.90;90.10;;;;;;5011827;28;20670;-89
2022/12/17 22:34:15;;;;;;;43.67;29.47;;;-5.80;90.10;;;;;;5013677;28;20204;-91
2022/12/17 22:36:41;;;;;;;50.37;28.23;;;-5.80;90.10;;;;;;5011818;28;20181;-89
2022/12/17 22:39:12;;;;;;;42.03;26.07;;;-5.80;90.00;;;;;;5011845;28;20178;-90
2022/12/17 22:44:25;;;;;;;43.87;28.57;;;-5.90;89.90;;;;;;5014048;28;20180;-89
2022/12/17 22:46:50;;;;;;;43.60;27.73;;;-5.80;89.90;;;;;;5016387;28;20177;-89
2022/12/17 22:49:17;;;;;;;45.03;27.80;;;-5.80;89.90;;;;;;5015369;28;20181;-89
2022/12/17 22:51:43;;;;;;;35.67;25.27;;;-5.80;89.90;;;;;;5016772;28;20178;-89
2022/12/17 22:54:11;;;;;;;40.47;25.97;;;-5.80;89.80;;;;;;5015758;28;20250;-89
2022/12/17 22:56:39;;;;;;;39.87;26.63;;;-5.90;89.80;;;;;;5015213;28;20178;-89
2022/12/17 22:59:05;;;;;;;39.03;22.47;;;-6.00;89.60;;;;;;5015271;28;20227;-89
2022/12/17 23:01:31;;;;;;;36.70;22.43;;;-6.10;89.70;;;;;;5016526;28;20209;-88
2022/12/17 23:03:58;;;;;;;38.13;24.83;;;-6.10;89.90;;;;;;5015277;28;20178;-88
2022/12/17 23:06:24;;;;;;;42.07;24.57;;;-6.10;89.90;;;;;;5015190;28;20235;-89
2022/12/17 23:08:51;;;;;;;44.43;24.43;;;-6.10;89.90;;;;;;5015103;28;20189;-89
2022/12/17 23:11:22;;;;;;;38.83;24.47;;;-6.00;89.90;;;;;;5016582;28;20283;-89
2022/12/17 23:13:48;;;;;;;36.90;24.83;;;-6.10;89.90;;;;;;5016302;28;20279;-88
2022/12/17 23:16:14;;;;;;;38.00;24.23;;;-6.10;89.90;;;;;;5015002;28;20204;-88
2022/12/17 23:18:47;;;;;;;39.63;22.70;;;-6.00;89.90;;;;;;5014890;28;20204;-88
2022/12/17 23:21:15;;;;;;;36.87;23.53;;;-5.90;90.00;;;;;;5015156;28;20209;-88
2022/12/17 23:23:41;;;;;;;38.63;21.70;;;-5.90;90.00;;;;;;5014772;28;20169;-88
2022/12/17 23:26:09;;;;;;;34.83;22.47;;;-5.90;90.00;;;;;;5016566;28;20620;-89
2022/12/17 23:28:38;;;;;;;34.57;22.47;;;-5.80;90.10;;;;;;5014685;28;20181;-89
2022/12/17 23:31:08;;;;;;;38.20;24.03;;;-5.70;90.10;;;;;;5014500;28;20216;-89
2022/12/17 23:33:34;;;;;;;38.97;22.13;;;-5.60;90.00;;;;;;5014583;28;20240;-89
2022/12/17 23:36:05;;;;;;;38.10;22.63;;;-5.60;90.10;;;;;;5014909;28;20177;-89
2022/12/17 23:38:32;;;;;;;33.90;22.73;;;-5.60;90.00;;;;;;5014785;28;20176;-89
2022/12/17 23:41:09;;;;;;;30.67;19.90;;;-5.60;89.90;;;;;;5014335;28;20205;-89
2022/12/17 23:43:35;;;;;;;37.87;22.37;;;-5.70;89.80;;;;;;5014466;28;20237;-89
2022/12/17 23:46:01;;;;;;;36.13;20.83;;;-5.70;89.80;;;;;;5016118;28;20628;-89
2022/12/17 23:48:31;;;;;;;43.87;22.93;;;-5.70;89.80;;;;;;5014336;28;20177;-88
2022/12/17 23:50:57;;;;;;;37.53;23.03;;;-5.80;89.70;;;;;;5014710;28;20224;-87
2022/12/17 23:53:23;;;;;;;34.90;20.70;;;-5.80;89.70;;;;;;5015551;28;20173;-87
2022/12/17 23:55:49;;;;;;;39.20;22.47;;;-5.80;89.70;;;;;;5015269;28;20169;-89
2022/12/17 23:58:15;;;;;;;34.47;22.43;;;-5.80;89.60;;;;;;5014169;28;20527;-89
